createdAt,value
2019-02-12T00:05:20.770Z,6.20
2019-02-12T00:08:01.408Z,6.20
2019-02-12T00:10:41.765Z,6.20
2019-02-12T00:13:22.980Z,6.10
2019-02-12T00:16:03.443Z,6.00
2019-02-12T00:18:44.364Z,6.10
2019-02-12T00:21:25.261Z,6.10
2019-02-12T00:24:06.092Z,6.20
2019-02-12T00:26:46.686Z,6.20
2019-02-12T00:29:27.614Z,6.10
2019-02-12T00:32:08.696Z,6.10
2019-02-12T00:34:49.257Z,6.10
2019-02-12T00:37:30.065Z,6.00
2019-02-12T00:40:10.488Z,6.00
2019-02-12T00:42:50.960Z,6.00
2019-02-12T00:45:31.624Z,6.00
2019-02-12T00:50:55.307Z,6.10
2019-02-12T00:53:35.987Z,6.10
2019-02-12T00:56:16.548Z,6.20
2019-02-12T00:58:57.311Z,6.30
2019-02-12T01:01:37.744Z,6.30
2019-02-12T01:04:18.640Z,6.40
2019-02-12T01:06:59.348Z,6.40
2019-02-12T01:09:40.314Z,6.50
2019-02-12T01:12:21.120Z,6.50
2019-02-12T01:15:01.987Z,6.60
2019-02-12T01:17:42.791Z,6.70
2019-02-12T01:20:23.103Z,6.80
2019-02-12T01:23:03.716Z,6.80
2019-02-12T01:25:44.512Z,6.80
2019-02-12T01:28:25.629Z,7.00
2019-02-12T01:31:06.751Z,6.90
2019-02-12T01:33:47.649Z,6.80
2019-02-12T01:36:28.721Z,7.00
2019-02-12T01:39:09.715Z,7.00
2019-02-12T01:41:50.275Z,7.00
2019-02-12T01:44:30.798Z,6.90
2019-02-12T01:47:11.374Z,7.00
2019-02-12T01:49:52.308Z,7.00
2019-02-12T01:52:32.893Z,7.00
2019-02-12T01:55:13.639Z,7.00
2019-02-12T01:57:54.216Z,7.00
2019-02-12T02:00:34.918Z,7.00
2019-02-12T02:03:15.448Z,7.00
2019-02-12T02:05:56.011Z,7.00
2019-02-12T02:08:36.827Z,7.00
2019-02-12T02:11:17.364Z,7.00
2019-02-12T02:13:58.288Z,7.10
2019-02-12T02:16:38.760Z,7.10
2019-02-12T02:19:19.407Z,7.10
2019-02-12T02:21:59.883Z,7.20
2019-02-12T02:24:40.455Z,7.10
2019-02-12T02:27:21.452Z,7.20
2019-02-12T02:30:02.321Z,7.40
2019-02-12T02:32:42.736Z,7.30
2019-02-12T02:35:23.586Z,7.30
2019-02-12T02:38:03.977Z,7.50
2019-02-12T02:40:44.263Z,7.20
2019-02-12T02:43:24.755Z,7.10
2019-02-12T02:46:05.162Z,7.10
2019-02-12T02:51:29.260Z,7.00
2019-02-12T02:56:54.010Z,7.00
2019-02-12T02:59:34.964Z,7.00
2019-02-12T03:02:15.868Z,7.00
2019-02-12T03:04:56.585Z,6.90
2019-02-12T03:07:37.244Z,6.90
2019-02-12T03:10:17.937Z,7.00
2019-02-12T03:12:58.816Z,7.00
2019-02-12T03:15:39.549Z,7.00
2019-02-12T03:18:20.442Z,6.90
2019-02-12T03:21:01.555Z,6.90
2019-02-12T03:23:42.046Z,6.90
2019-02-12T03:26:22.986Z,7.00
2019-02-12T03:29:03.446Z,6.90
2019-02-12T03:31:44.177Z,6.90
2019-02-12T03:34:24.896Z,6.90
2019-02-12T03:37:05.753Z,6.90
2019-02-12T03:39:46.676Z,6.90
2019-02-12T03:42:15.104Z,6.90
2019-02-12T03:44:43.555Z,6.90
2019-02-12T03:47:31.328Z,6.90
2019-02-12T03:50:19.123Z,6.90
2019-02-12T03:53:06.902Z,6.90
2019-02-12T03:55:54.729Z,6.80
2019-02-12T03:58:42.612Z,6.80
2019-02-12T04:01:30.389Z,6.90
2019-02-12T04:04:18.257Z,7.00
2019-02-12T04:07:06.275Z,7.10
2019-02-12T04:09:47.488Z,7.00
2019-02-12T04:12:28.121Z,7.10
2019-02-12T04:15:08.865Z,7.10
2019-02-12T04:17:49.308Z,7.10
2019-02-12T04:20:29.790Z,7.10
2019-02-12T04:23:10.301Z,7.10
2019-02-12T04:25:51.011Z,7.10
2019-02-12T04:28:33.297Z,7.10
2019-02-12T04:31:13.724Z,7.10
2019-02-12T04:33:54.424Z,7.10
2019-02-12T04:36:35.232Z,7.20
2019-02-12T04:39:15.660Z,7.20
2019-02-12T04:41:56.183Z,7.20
2019-02-12T04:44:37.162Z,7.20
2019-02-12T04:47:17.432Z,7.20
2019-02-12T04:49:58.528Z,7.20
2019-02-12T04:52:38.757Z,7.30
2019-02-12T04:55:19.405Z,7.40
2019-02-12T04:57:59.818Z,7.30
2019-02-12T05:00:40.541Z,7.30
2019-02-12T05:03:21.206Z,7.20
2019-02-12T05:06:02.068Z,7.10
2019-02-12T05:08:42.950Z,7.00
2019-02-12T05:11:26.976Z,7.00
2019-02-12T05:14:07.356Z,7.00
2019-02-12T05:16:47.942Z,7.00
2019-02-12T05:19:28.933Z,7.00
2019-02-12T05:22:09.768Z,7.00
2019-02-12T05:24:50.513Z,7.00
2019-02-12T05:27:31.279Z,7.10
2019-02-12T05:30:12.195Z,7.20
2019-02-12T05:32:52.855Z,7.10
2019-02-12T05:35:33.800Z,7.20
2019-02-12T05:38:14.553Z,7.20
2019-02-12T05:40:55.726Z,7.20
2019-02-12T05:43:36.738Z,7.20
2019-02-12T05:46:17.696Z,7.30
2019-02-12T05:48:58.678Z,7.30
2019-02-12T05:51:39.361Z,7.40
2019-02-12T05:56:46.408Z,7.40
2019-02-12T05:59:14.953Z,7.40
2019-02-12T06:02:02.796Z,7.40
2019-02-12T06:04:50.833Z,7.40
2019-02-12T06:07:38.627Z,7.40
2019-02-12T06:10:19.621Z,7.40
2019-02-12T06:15:43.939Z,7.50
2019-02-12T06:18:19.319Z,7.50
2019-02-12T06:21:07.113Z,7.50
2019-02-12T06:23:54.891Z,7.50
2019-02-12T06:26:42.761Z,7.30
2019-02-12T06:29:30.791Z,7.10
2019-02-12T06:32:18.560Z,7.10
2019-02-12T06:35:27.404Z,7.10
2019-02-12T06:38:15.291Z,7.00
2019-02-12T06:40:43.821Z,7.00
2019-02-12T06:43:31.675Z,7.00
2019-02-12T06:46:19.482Z,7.10
2019-02-12T06:49:07.321Z,7.00
2019-02-12T06:51:55.115Z,7.00
2019-02-12T06:54:43.196Z,7.10
2019-02-12T06:57:30.971Z,7.10
2019-02-12T07:00:18.768Z,7.20
2019-02-12T07:03:25.867Z,7.20
2019-02-12T07:06:32.975Z,7.30
2019-02-12T07:09:14.020Z,7.40
2019-02-12T07:11:54.546Z,7.30
2019-02-12T07:14:35.234Z,7.30
2019-02-12T07:17:16.228Z,7.30
2019-02-12T07:19:57.356Z,7.30
2019-02-12T07:22:38.479Z,7.30
2019-02-12T07:25:19.220Z,7.40
2019-02-12T07:27:59.416Z,7.40
2019-02-12T07:30:40.039Z,7.40
2019-02-12T07:33:21.063Z,7.40
2019-02-12T07:36:01.712Z,7.40
2019-02-12T07:38:42.632Z,7.50
2019-02-12T07:41:23.463Z,7.50
2019-02-12T07:44:04.491Z,7.50
2019-02-12T07:46:45.528Z,7.40
2019-02-12T07:49:26.233Z,7.40
2019-02-12T07:52:07.078Z,7.30
2019-02-12T07:54:48.252Z,7.40
2019-02-12T07:57:29.187Z,7.40
2019-02-12T08:00:10.019Z,7.50
2019-02-12T08:02:50.658Z,7.80
2019-02-12T08:05:31.470Z,7.50
2019-02-12T08:08:12.734Z,7.60
2019-02-12T08:10:53.512Z,7.60
2019-02-12T08:13:34.499Z,7.70
2019-02-12T08:16:15.235Z,7.70
2019-02-12T08:18:56.074Z,7.80
2019-02-12T08:21:36.937Z,7.80
2019-02-12T08:24:17.625Z,7.90
2019-02-12T08:26:58.449Z,7.90
2019-02-12T08:29:39.251Z,7.70
2019-02-12T08:32:20.288Z,7.60
2019-02-12T08:35:00.943Z,7.40
2019-02-12T08:37:41.625Z,7.30
2019-02-12T08:40:22.272Z,7.20
2019-02-12T08:43:03.123Z,7.00
2019-02-12T08:45:43.892Z,7.10
2019-02-12T08:48:24.777Z,7.10
2019-02-12T08:51:05.644Z,7.20
2019-02-12T08:53:50.501Z,7.20
2019-02-12T08:56:29.372Z,7.20
2019-02-12T08:59:09.998Z,7.30
2019-02-12T09:01:50.911Z,7.30
2019-02-12T09:04:31.636Z,7.40
2019-02-12T09:07:12.237Z,7.40
2019-02-12T09:09:53.311Z,7.40
2019-02-12T09:12:34.291Z,7.50
2019-02-12T09:15:15.045Z,7.50
2019-02-12T09:17:55.876Z,7.60
2019-02-12T09:20:36.493Z,7.80
2019-02-12T09:23:17.326Z,7.80
2019-02-12T09:25:58.341Z,7.90
2019-02-12T09:28:38.986Z,7.90
2019-02-12T09:31:19.743Z,8.00
2019-02-12T09:34:00.291Z,8.00
2019-02-12T09:36:41.293Z,8.20
2019-02-12T09:39:21.933Z,8.30
2019-02-12T09:42:02.225Z,8.40
2019-02-12T09:44:43.245Z,8.50
2019-02-12T09:47:23.944Z,8.50
2019-02-12T09:50:04.711Z,8.60
2019-02-12T09:52:45.647Z,8.70
2019-02-12T09:55:26.281Z,8.40
2019-02-12T09:58:06.747Z,8.40
2019-02-12T10:00:47.553Z,8.60
2019-02-12T10:03:28.173Z,8.30
2019-02-12T10:06:08.641Z,8.20
2019-02-12T10:08:48.976Z,8.10
2019-02-12T10:11:29.312Z,8.00
2019-02-12T10:14:09.904Z,7.90
2019-02-12T10:16:50.688Z,7.80
2019-02-12T10:19:31.290Z,7.70
2019-02-12T10:22:11.734Z,7.60
2019-02-12T10:25:20.298Z,7.60
2019-02-12T10:28:27.425Z,7.70
2019-02-12T10:31:15.772Z,7.00
2019-02-12T10:37:02.198Z,7.90
2019-02-12T10:39:50.022Z,8.10
2019-02-12T10:42:37.875Z,7.90
2019-02-12T10:45:25.945Z,7.90
2019-02-12T10:48:15.167Z,7.90
2019-02-12T10:51:02.970Z,8.10
2019-02-12T10:53:50.771Z,8.10
2019-02-12T10:56:38.620Z,8.20
2019-02-12T10:59:26.417Z,8.20
2019-02-12T11:02:14.188Z,8.30
2019-02-12T11:05:01.984Z,8.20
2019-02-12T11:07:49.798Z,8.10
2019-02-12T11:10:30.892Z,8.00
2019-02-12T11:13:11.820Z,7.90
2019-02-12T11:15:52.880Z,7.80
2019-02-12T11:18:33.907Z,7.80
2019-02-12T11:21:14.553Z,8.00
2019-02-12T11:23:55.184Z,7.90
2019-02-12T11:26:35.896Z,8.00
2019-02-12T11:29:16.536Z,8.20
2019-02-12T11:31:57.117Z,8.20
2019-02-12T11:34:37.900Z,8.60
2019-02-12T11:37:18.388Z,8.50
2019-02-12T11:39:59.266Z,8.70
2019-02-12T11:42:40.075Z,8.90
2019-02-12T11:45:21.173Z,8.90
2019-02-12T11:48:01.877Z,8.90
2019-02-12T11:50:42.736Z,9.00
2019-02-12T11:53:23.661Z,9.10
2019-02-12T11:56:04.236Z,9.10
2019-02-12T11:58:45.236Z,9.10
2019-02-12T12:01:27.173Z,9.00
2019-02-12T12:04:07.768Z,8.80
2019-02-12T12:06:48.402Z,8.50
2019-02-12T12:09:29.196Z,8.40
2019-02-12T12:12:09.741Z,8.40
2019-02-12T12:14:50.441Z,8.50
2019-02-12T12:17:31.027Z,8.60
2019-02-12T12:20:11.776Z,8.80
2019-02-12T12:22:52.709Z,9.00
2019-02-12T12:25:33.443Z,9.20
2019-02-12T12:28:23.307Z,9.30
2019-02-12T12:31:45.571Z,9.50
2019-02-12T12:34:21.496Z,9.50
2019-02-12T12:37:09.452Z,9.40
2019-02-12T12:46:01.109Z,9.60
2019-02-12T12:48:48.905Z,9.80
2019-02-12T12:51:36.759Z,10.00
2019-02-12T12:54:24.550Z,10.10
2019-02-12T12:57:12.444Z,10.10
2019-02-12T13:00:00.369Z,10.00
2019-02-12T13:02:48.314Z,10.00
2019-02-12T13:05:36.169Z,10.00
2019-02-12T13:08:23.992Z,10.10
2019-02-12T13:11:04.910Z,10.20
2019-02-12T13:13:45.829Z,10.50
2019-02-12T13:16:26.606Z,11.00
2019-02-12T13:19:08.487Z,11.70
2019-02-12T13:21:49.341Z,12.40
2019-02-12T13:24:30.142Z,13.00
2019-02-12T13:27:10.753Z,13.80
2019-02-12T13:29:51.476Z,14.50
2019-02-12T13:32:32.308Z,15.10
2019-02-12T13:35:13.054Z,15.40
2019-02-12T13:37:53.496Z,15.40
2019-02-12T13:40:34.194Z,15.50
2019-02-12T13:43:14.905Z,15.60
2019-02-12T13:45:55.704Z,15.60
2019-02-12T13:48:36.498Z,15.70
2019-02-12T13:51:16.729Z,15.80
2019-02-12T13:53:57.678Z,15.80
2019-02-12T13:59:20.268Z,15.50
2019-02-12T14:02:01.122Z,15.40
2019-02-12T14:04:41.843Z,15.30
2019-02-12T14:07:22.508Z,15.20
2019-02-12T14:10:03.219Z,15.20
2019-02-12T14:12:43.891Z,15.00
2019-02-12T14:15:24.861Z,14.80
2019-02-12T14:18:05.344Z,14.30
2019-02-12T14:20:46.421Z,13.90
2019-02-12T14:23:30.679Z,13.40
2019-02-12T14:26:10.928Z,12.90
2019-02-12T14:28:51.604Z,12.90
2019-02-12T14:31:32.333Z,13.00
2019-02-12T14:34:12.872Z,13.30
2019-02-12T14:36:53.716Z,13.80
2019-02-12T14:39:34.501Z,14.20
2019-02-12T14:42:14.828Z,14.50
2019-02-12T14:44:55.470Z,14.70
2019-02-12T14:47:36.104Z,14.80
2019-02-12T14:50:16.668Z,14.80
2019-02-12T14:52:45.153Z,14.70
2019-02-12T14:55:34.110Z,14.60
2019-02-12T14:58:22.422Z,14.50
2019-02-12T15:01:10.292Z,14.40
2019-02-12T15:03:58.072Z,14.20
2019-02-12T15:06:45.903Z,14.10
2019-02-12T15:09:33.692Z,13.90
2019-02-12T15:12:21.475Z,13.60
2019-02-12T15:15:09.742Z,13.30
2019-02-12T15:17:57.521Z,13.10
2019-02-12T15:20:45.393Z,13.00
2019-02-12T15:23:33.172Z,12.80
2019-02-12T15:26:20.975Z,12.70
2019-02-12T15:29:08.755Z,12.70
2019-02-12T15:31:56.653Z,12.60
2019-02-12T15:34:25.144Z,12.50
2019-02-12T15:37:13.152Z,12.30
2019-02-12T15:40:00.955Z,12.20
2019-02-12T15:42:48.828Z,12.10
2019-02-12T15:45:36.682Z,11.90
2019-02-12T15:48:24.606Z,11.80
2019-02-12T15:51:12.576Z,11.80
2019-02-12T15:54:00.366Z,11.60
2019-02-12T15:56:48.232Z,11.60
2019-02-12T15:59:36.014Z,11.50
2019-02-12T16:02:04.557Z,11.50
2019-02-12T16:04:52.320Z,11.50
2019-02-12T16:07:40.162Z,11.50
2019-02-12T16:10:20.759Z,11.50
2019-02-12T16:13:01.360Z,11.40
2019-02-12T16:15:43.552Z,11.20
2019-02-12T16:18:24.949Z,11.20
2019-02-12T16:21:05.613Z,11.10
2019-02-12T16:23:46.436Z,11.00
2019-02-12T16:26:27.136Z,11.00
2019-02-12T16:29:07.540Z,10.90
2019-02-12T16:31:48.256Z,10.90
2019-02-12T16:34:28.761Z,10.80
2019-02-12T16:37:09.617Z,10.80
2019-02-12T16:39:50.569Z,10.70
2019-02-12T16:42:31.680Z,10.70
2019-02-12T16:45:12.531Z,10.60
2019-02-12T16:47:53.125Z,10.70
2019-02-12T16:50:34.156Z,10.70
2019-02-12T16:53:14.710Z,10.60
2019-02-12T16:55:55.402Z,10.60
2019-02-12T16:58:36.484Z,10.60
2019-02-12T17:01:17.227Z,10.60
2019-02-12T17:03:58.371Z,10.50
2019-02-12T17:06:39.408Z,10.20
2019-02-12T17:09:19.800Z,10.30
2019-02-12T17:12:00.354Z,10.20
2019-02-12T17:14:40.878Z,10.20
2019-02-12T17:17:21.829Z,10.10
2019-02-12T17:20:02.409Z,10.10
2019-02-12T17:22:43.046Z,10.00
2019-02-12T17:25:23.847Z,9.90
2019-02-12T17:28:04.599Z,9.90
2019-02-12T17:33:28.588Z,9.70
2019-02-12T17:36:08.930Z,9.70
2019-02-12T17:38:49.804Z,9.60
2019-02-12T17:41:30.572Z,9.60
2019-02-12T17:44:11.223Z,9.60
2019-02-12T17:46:52.049Z,9.50
2019-02-12T17:49:33.001Z,9.40
2019-02-12T17:52:13.509Z,9.40
2019-02-12T17:54:54.048Z,9.30
2019-02-12T17:57:34.517Z,9.30
2019-02-12T18:00:17.048Z,9.20
2019-02-12T18:02:57.952Z,9.10
2019-02-12T18:05:38.699Z,9.10
2019-02-12T18:08:19.631Z,9.00
2019-02-12T18:11:00.649Z,9.10
2019-02-12T18:13:41.093Z,8.90
2019-02-12T18:19:05.084Z,8.90
2019-02-12T18:21:45.409Z,8.90
2019-02-12T18:24:26.347Z,9.10
2019-02-12T18:27:07.083Z,8.90
2019-02-12T18:29:47.744Z,8.90
2019-02-12T18:32:28.483Z,8.90
2019-02-12T18:35:08.825Z,8.80
2019-02-12T18:37:49.312Z,8.70
2019-02-12T18:40:29.874Z,8.60
2019-02-12T18:43:11.488Z,8.70
2019-02-12T18:45:52.631Z,8.60
2019-02-12T18:48:33.114Z,8.50
2019-02-12T18:51:13.748Z,8.50
2019-02-12T18:56:41.945Z,8.50
2019-02-12T18:59:23.237Z,8.40
2019-02-12T19:02:03.504Z,8.30
2019-02-12T19:04:43.854Z,8.30
2019-02-12T19:10:07.486Z,8.20
2019-02-12T19:12:35.920Z,8.10
2019-02-12T19:15:25.890Z,8.10
2019-02-12T19:18:37.091Z,8.10
2019-02-12T19:21:25.028Z,8.00
2019-02-12T19:24:12.897Z,8.00
2019-02-12T19:27:00.736Z,8.00
2019-02-12T19:29:48.532Z,7.90
2019-02-12T19:32:36.316Z,7.70
2019-02-12T19:35:24.120Z,7.70
2019-02-12T19:38:11.896Z,7.60
2019-02-12T19:40:59.776Z,7.70
2019-02-12T19:43:47.717Z,7.70
2019-02-12T19:46:35.592Z,7.70
2019-02-12T19:49:23.390Z,7.60
2019-02-12T19:52:11.162Z,7.60
2019-02-12T19:54:58.960Z,7.60
2019-02-12T19:57:46.740Z,7.70
2019-02-12T20:00:34.557Z,7.70
2019-02-12T20:03:22.411Z,7.60
2019-02-12T20:06:10.627Z,7.60
2019-02-12T20:08:58.781Z,7.60
2019-02-12T20:11:39.432Z,7.70
2019-02-12T20:14:19.938Z,7.60
2019-02-12T20:17:01.069Z,7.50
2019-02-12T20:19:41.889Z,7.50
2019-02-12T20:22:22.557Z,7.50
2019-02-12T20:25:03.443Z,7.50
2019-02-12T20:27:44.489Z,7.60
2019-02-12T20:30:25.189Z,7.50
2019-02-12T20:33:05.516Z,7.40
2019-02-12T20:35:46.233Z,7.30
2019-02-12T20:38:27.006Z,7.10
2019-02-12T20:41:08.141Z,7.20
2019-02-12T20:43:48.411Z,7.20
2019-02-12T20:46:29.463Z,7.00
2019-02-12T20:49:09.818Z,6.90
2019-02-12T20:51:50.437Z,6.80
2019-02-12T20:54:31.116Z,7.00
2019-02-12T20:59:58.261Z,6.60
2019-02-12T21:08:49.694Z,6.90
2019-02-12T21:11:30.590Z,6.60
2019-02-12T21:13:59.099Z,6.60
2019-02-12T21:16:46.957Z,6.50
2019-02-12T21:19:34.835Z,6.60
2019-02-12T21:22:22.942Z,6.60
2019-02-12T21:25:11.480Z,6.50
2019-02-12T21:27:59.319Z,6.60
2019-02-12T21:30:47.156Z,6.40
2019-02-12T21:33:35.311Z,6.40
2019-02-12T21:36:23.406Z,6.40
2019-02-12T21:42:19.885Z,6.40
2019-02-12T21:44:48.448Z,6.30
2019-02-12T21:47:36.250Z,6.30
2019-02-12T21:50:24.087Z,6.20
2019-02-12T21:53:11.922Z,6.10
2019-02-12T21:55:59.696Z,6.10
2019-02-12T21:58:47.572Z,6.10
2019-02-12T22:01:35.540Z,6.00
2019-02-12T22:04:23.505Z,6.10
2019-02-12T22:07:11.647Z,6.10
2019-02-12T22:09:59.826Z,6.20
2019-02-12T22:12:41.176Z,6.10
2019-02-12T22:15:21.764Z,6.10
2019-02-12T22:18:02.682Z,6.10
2019-02-12T22:20:43.740Z,6.30
2019-02-12T22:23:24.586Z,6.20
2019-02-12T22:28:48.427Z,6.10
2019-02-12T22:31:29.249Z,6.10
2019-02-12T22:34:09.779Z,6.00
2019-02-12T22:36:50.656Z,5.90
2019-02-12T22:39:31.423Z,5.90
2019-02-12T22:42:12.439Z,5.90
2019-02-12T22:44:53.384Z,5.90
2019-02-12T22:47:33.919Z,5.90
2019-02-12T22:50:14.584Z,6.00
2019-02-12T22:52:55.589Z,6.00
2019-02-12T22:55:36.594Z,6.10
2019-02-12T22:58:17.597Z,6.20
2019-02-12T23:00:58.642Z,6.20
2019-02-12T23:03:38.889Z,6.10
2019-02-12T23:09:31.562Z,5.90
2019-02-12T23:12:12.175Z,5.80
2019-02-12T23:17:36.021Z,5.80
2019-02-12T23:20:16.974Z,5.90
2019-02-12T23:22:57.655Z,5.80
2019-02-12T23:25:38.469Z,5.90
2019-02-12T23:28:19.289Z,5.90
2019-02-12T23:31:00.176Z,5.80
2019-02-12T23:33:41.322Z,5.80
2019-02-12T23:36:22.606Z,5.90
2019-02-12T23:39:03.820Z,6.00
2019-02-12T23:41:44.127Z,6.00
2019-02-12T23:44:25.111Z,5.90
2019-02-12T23:47:05.919Z,6.00
2019-02-12T23:49:46.952Z,6.10
2019-02-12T23:52:27.833Z,6.00
2019-02-12T23:55:08.628Z,6.00
2019-02-12T23:57:49.578Z,6.00
